Time;durP1;ratioP1;P1;durP2;ratioP2;P2;SDS_P1;SDS_P2;PMS_P1;PMS_P2;Temp;Humidity;BMP_temperature;BMP_pressure;BME280_temperature;BME280_humidity;BME280_pressure;Samples;Min_cycle;Max_cycle;Signal;HPM_P1;HPM_P2
2023/10/19 00:00:33;;;;;;;10.70;9.55;;;10.00;99.90;;;;;;5071363;28;20219;-74
2023/10/19 00:03:02;;;;;;;10.65;9.55;;;9.90;99.90;;;;;;5065651;28;20538;-72
2023/10/19 00:05:29;;;;;;;11.10;9.40;;;9.80;99.90;;;;;;5072936;28;20199;-74
2023/10/19 00:07:59;;;;;;;16.20;11.52;;;9.60;99.90;;;;;;5071265;28;20741;-74
2023/10/19 00:10:30;;;;;;;15.40;11.00;;;9.50;99.90;;;;;;5071303;28;20203;-72
2023/10/19 00:13:00;;;;;;;12.73;10.20;;;9.30;99.90;;;;;;5071207;28;20238;-71
2023/10/19 00:15:30;;;;;;;12.02;10.38;;;9.30;99.90;;;;;;5072484;28;20225;-71
2023/10/19 00:17:57;;;;;;;15.32;11.68;;;9.20;99.90;;;;;;5070595;28;20321;-72
2023/10/19 00:20:36;;;;;;;12.73;11.13;;;9.10;99.90;;;;;;5072198;28;20660;-72
2023/10/19 00:23:05;;;;;;;16.02;12.50;;;9.00;99.90;;;;;;5072051;28;20200;-70
2023/10/19 00:25:34;;;;;;;14.65;11.98;;;8.90;99.90;;;;;;5071872;28;20199;-71
2023/10/19 00:28:05;;;;;;;15.68;11.98;;;8.90;99.90;;;;;;5070218;28;20223;-72
2023/10/19 00:30:35;;;;;;;15.10;12.82;;;8.80;99.90;;;;;;5072381;28;20199;-70
2023/10/19 00:33:03;;;;;;;14.95;11.68;;;8.70;99.90;;;;;;5070479;28;20289;-71
2023/10/19 00:35:36;;;;;;;13.18;11.88;;;8.70;99.90;;;;;;5071510;28;20206;-73
2023/10/19 00:38:27;;;;;;;19.25;13.95;;;8.70;99.90;;;;;;5068770;28;20219;-71
2023/10/19 00:40:59;;;;;;;17.75;12.50;;;8.70;99.90;;;;;;5072454;28;20205;-74
2023/10/19 00:43:32;;;;;;;13.52;11.25;;;8.60;99.90;;;;;;5069609;28;20203;-72
2023/10/19 00:46:02;;;;;;;20.25;13.95;;;8.60;99.90;;;;;;5059374;28;20231;-73
2023/10/19 00:48:32;;;;;;;14.80;12.30;;;8.60;99.90;;;;;;5070192;28;20203;-73
2023/10/19 00:51:09;;;;;;;16.88;13.85;;;8.50;99.90;;;;;;5064649;28;20207;-73
2023/10/19 00:53:39;;;;;;;14.80;13.02;;;8.50;99.90;;;;;;5072404;28;20199;-72
2023/10/19 00:56:10;;;;;;;18.63;13.48;;;8.50;99.90;;;;;;5065302;28;20290;-73
2023/10/19 00:58:41;;;;;;;20.92;13.57;;;8.40;99.90;;;;;;5071735;28;20206;-71
2023/10/19 01:01:09;;;;;;;20.05;14.35;;;8.40;99.90;;;;;;5071633;28;20206;-73
2023/10/19 01:03:39;;;;;;;21.77;15.13;;;8.30;99.90;;;;;;5071618;28;20206;-72
2023/10/19 01:06:09;;;;;;;18.13;14.25;;;8.30;99.90;;;;;;5072295;28;20214;-74
2023/10/19 01:08:42;;;;;;;19.38;13.75;;;8.30;99.90;;;;;;5071556;28;20208;-75
2023/10/19 01:11:12;;;;;;;23.73;17.50;;;8.30;99.90;;;;;;5069431;28;20209;-72
2023/10/19 01:13:44;;;;;;;20.05;16.73;;;8.30;99.90;;;;;;5072141;28;20296;-75
2023/10/19 01:16:15;;;;;;;19.88;17.77;;;8.30;99.90;;;;;;5072102;28;20290;-74
2023/10/19 01:18:43;;;;;;;22.52;17.50;;;8.30;99.90;;;;;;5073036;28;20293;-74
2023/10/19 01:21:11;;;;;;;21.33;18.02;;;8.20;99.90;;;;;;5076235;28;20288;-74
2023/10/19 01:23:41;;;;;;;21.38;17.88;;;8.20;99.90;;;;;;5076041;28;20592;-75
2023/10/19 01:26:08;;;;;;;23.55;17.38;;;8.30;99.90;;;;;;5074717;28;20210;-74
2023/10/19 01:28:43;;;;;;;19.55;16.40;;;8.30;99.90;;;;;;5071933;28;20577;-73
2023/10/19 01:31:15;;;;;;;18.48;16.20;;;8.30;99.90;;;;;;5075642;28;20603;-74
2023/10/19 01:33:43;;;;;;;26.58;17.80;;;8.20;99.90;;;;;;5075589;28;20201;-72
2023/10/19 01:36:24;;;;;;;22.48;17.98;;;8.20;99.90;;;;;;5075427;28;20199;-72
2023/10/19 01:38:53;;;;;;;21.60;17.13;;;8.20;99.90;;;;;;5069161;28;20202;-73
2023/10/19 01:41:21;;;;;;;20.88;17.80;;;8.20;99.90;;;;;;5075356;28;20214;-73
2023/10/19 01:43:49;;;;;;;22.38;17.38;;;8.20;99.90;;;;;;5075631;28;20230;-72
2023/10/19 01:46:21;;;;;;;25.90;20.42;;;8.20;99.90;;;;;;5075572;28;20263;-73
2023/10/19 01:48:53;;;;;;;25.42;19.90;;;8.20;99.90;;;;;;5071575;28;20206;-72
2023/10/19 01:51:20;;;;;;;22.45;18.55;;;8.20;99.90;;;;;;5075800;28;20210;-73
2023/10/19 01:53:48;;;;;;;25.17;20.38;;;8.20;99.90;;;;;;5067727;28;20458;-74
2023/10/19 01:56:16;;;;;;;27.17;20.30;;;8.10;99.90;;;;;;5071504;28;20214;-73
2023/10/19 01:58:46;;;;;;;21.15;18.85;;;8.10;99.90;;;;;;5074559;28;20282;-71
2023/10/19 02:01:19;;;;;;;28.38;19.48;;;8.10;99.90;;;;;;5075631;28;20219;-72
2023/10/19 02:03:46;;;;;;;28.42;20.95;;;8.10;99.90;;;;;;5059679;28;20221;-73
2023/10/19 02:06:17;;;;;;;30.20;22.63;;;8.00;99.90;;;;;;5075473;28;20233;-73
2023/10/19 02:08:47;;;;;;;31.13;20.15;;;8.00;99.90;;;;;;5074005;28;20239;-74
2023/10/19 02:11:17;;;;;;;24.08;20.98;;;8.00;99.90;;;;;;5082088;28;20203;-74
2023/10/19 02:13:46;;;;;;;27.08;20.00;;;8.00;99.90;;;;;;5075021;28;20286;-74
2023/10/19 02:16:13;;;;;;;25.77;20.08;;;8.00;99.90;;;;;;5067868;28;20215;-72
2023/10/19 02:18:40;;;;;;;27.35;21.10;;;8.20;99.90;;;;;;5073841;28;20244;-73
2023/10/19 02:21:06;;;;;;;22.75;19.70;;;8.00;99.90;;;;;;5069018;28;20310;-71
2023/10/19 02:23:35;;;;;;;28.90;21.65;;;8.00;99.90;;;;;;5074740;28;20201;-73
2023/10/19 02:26:04;;;;;;;27.02;20.98;;;8.00;99.90;;;;;;5074480;28;20203;-73
2023/10/19 02:28:32;;;;;;;28.20;21.10;;;8.00;99.90;;;;;;5074267;28;20230;-73
2023/10/19 02:31:10;;;;;;;23.88;21.27;;;8.00;99.90;;;;;;5074302;28;20199;-72
2023/10/19 02:33:37;;;;;;;27.90;22.92;;;8.00;99.90;;;;;;5071770;28;20209;-72
2023/10/19 02:36:12;;;;;;;27.10;21.38;;;8.00;99.90;;;;;;5074562;28;20289;-75
2023/10/19 02:38:39;;;;;;;26.42;21.67;;;8.10;99.90;;;;;;5073857;28;20263;-75
2023/10/19 02:41:05;;;;;;;28.98;21.85;;;8.00;99.90;;;;;;5074835;28;20226;-74
2023/10/19 02:43:34;;;;;;;30.45;24.17;;;8.00;99.90;;;;;;5074647;28;20194;-75
2023/10/19 02:46:02;;;;;;;29.83;21.50;;;8.00;99.90;;;;;;5066567;28;20238;-72
2023/10/19 02:48:29;;;;;;;26.67;22.50;;;8.00;99.90;;;;;;5073604;28;20207;-73
2023/10/19 02:50:58;;;;;;;30.65;23.65;;;8.00;99.90;;;;;;5072757;28;20784;-73
2023/10/19 02:53:24;;;;;;;30.00;22.35;;;8.00;99.90;;;;;;5074297;28;20211;-73
2023/10/19 02:55:52;;;;;;;25.27;21.58;;;8.00;99.90;;;;;;5074243;28;20622;-73
2023/10/19 02:58:17;;;;;;;29.95;22.80;;;8.00;99.90;;;;;;5073325;28;20226;-74
2023/10/19 03:00:46;;;;;;;32.10;23.50;;;8.00;99.90;;;;;;5074101;28;20218;-74
2023/10/19 03:03:11;;;;;;;29.98;23.17;;;8.00;99.90;;;;;;5069811;28;20928;-74
2023/10/19 03:05:41;;;;;;;28.27;22.37;;;8.00;99.90;;;;;;5070894;28;20286;-74
2023/10/19 03:08:07;;;;;;;25.17;21.08;;;8.10;99.90;;;;;;5073259;28;20465;-75
2023/10/19 03:10:41;;;;;;;34.17;23.93;;;8.00;99.90;;;;;;5074112;28;20205;-74
2023/10/19 03:13:08;;;;;;;29.05;22.63;;;8.10;99.90;;;;;;5062561;28;20494;-74
2023/10/19 03:15:35;;;;;;;27.23;21.58;;;8.00;99.90;;;;;;5074172;28;20259;-74
2023/10/19 03:18:04;;;;;;;29.95;23.90;;;8.00;99.90;;;;;;5073228;28;20639;-74
2023/10/19 03:20:33;;;;;;;28.90;22.40;;;8.00;99.90;;;;;;5068699;28;20222;-75
2023/10/19 03:23:01;;;;;;;28.65;21.85;;;8.00;99.90;;;;;;5073969;28;20203;-73
2023/10/19 03:25:55;;;;;;;31.90;25.02;;;8.00;99.90;;;;;;5073333;28;20690;-74
2023/10/19 03:28:25;;;;;;;30.85;24.48;;;8.00;99.90;;;;;;5056862;28;20222;-74
2023/10/19 03:30:55;;;;;;;26.27;22.05;;;8.00;99.90;;;;;;5073487;28;20567;-74
2023/10/19 03:33:27;;;;;;;27.95;23.02;;;8.00;99.90;;;;;;5072562;28;20206;-73
2023/10/19 03:35:54;;;;;;;42.60;24.15;;;8.00;99.90;;;;;;5073548;28;20574;-73
2023/10/19 03:38:22;;;;;;;31.45;23.48;;;8.00;99.90;;;;;;5072542;28;20317;-74
2023/10/19 03:40:58;;;;;;;31.67;24.23;;;8.00;99.90;;;;;;5066931;28;20229;-73
2023/10/19 03:43:27;;;;;;;29.55;23.58;;;7.90;99.90;;;;;;5065829;28;20234;-74
2023/10/19 03:45:54;;;;;;;29.30;24.92;;;7.90;99.90;;;;;;5072344;28;20232;-73
2023/10/19 03:48:30;;;;;;;32.35;25.35;;;7.90;99.90;;;;;;5072867;28;20308;-73
2023/10/19 03:50:57;;;;;;;30.48;25.77;;;7.90;99.90;;;;;;5066700;28;20209;-74
2023/10/19 03:53:24;;;;;;;32.80;25.65;;;8.00;99.90;;;;;;5068632;28;20624;-73
2023/10/19 03:55:52;;;;;;;32.00;26.10;;;7.90;99.90;;;;;;5073147;28;20233;-73
2023/10/19 03:58:20;;;;;;;26.77;23.35;;;8.00;99.90;;;;;;5072555;28;20701;-73
2023/10/19 04:00:48;;;;;;;29.65;25.15;;;8.00;99.90;;;;;;5072746;28;20223;-74
2023/10/19 04:03:15;;;;;;;29.48;23.05;;;7.90;99.90;;;;;;5073292;28;20665;-74
2023/10/19 04:05:46;;;;;;;27.52;22.95;;;7.90;99.90;;;;;;5072948;28;20203;-73
2023/10/19 04:08:15;;;;;;;33.47;25.20;;;8.00;99.90;;;;;;5072676;28;20233;-74
2023/10/19 04:10:47;;;;;;;29.63;24.65;;;7.90;99.90;;;;;;5072695;28;20203;-74
2023/10/19 04:13:17;;;;;;;30.40;24.08;;;7.90;99.90;;;;;;5066480;28;20305;-74
2023/10/19 04:15:45;;;;;;;30.20;23.38;;;7.90;99.90;;;;;;5072313;28;20238;-74
2023/10/19 04:18:12;;;;;;;27.27;23.20;;;7.90;99.90;;;;;;5068786;28;20690;-73
2023/10/19 04:20:58;;;;;;;28.88;23.00;;;7.90;99.90;;;;;;5069186;28;20226;-75
2023/10/19 04:23:28;;;;;;;28.50;23.90;;;7.90;99.90;;;;;;5068745;28;20549;-73
2023/10/19 04:25:58;;;;;;;30.45;23.60;;;7.90;99.90;;;;;;5072583;28;20285;-73
2023/10/19 04:28:33;;;;;;;32.78;24.38;;;7.90;99.90;;;;;;5068722;28;20566;-73
2023/10/19 04:31:04;;;;;;;28.75;23.65;;;7.90;99.90;;;;;;5060802;28;20213;-73
2023/10/19 04:33:33;;;;;;;34.75;23.95;;;7.90;99.90;;;;;;5072263;28;20549;-74
2023/10/19 04:36:00;;;;;;;32.05;24.40;;;7.90;99.90;;;;;;5071171;28;20564;-74
2023/10/19 04:38:30;;;;;;;29.08;24.70;;;7.90;99.90;;;;;;5069874;28;20244;-74
2023/10/19 04:41:07;;;;;;;33.15;25.25;;;7.90;99.90;;;;;;5069818;28;20238;-73
2023/10/19 04:43:35;;;;;;;33.83;26.45;;;7.90;99.90;;;;;;5070449;28;20293;-72
2023/10/19 04:46:08;;;;;;;31.77;24.92;;;7.90;99.90;;;;;;5069577;28;20209;-74
2023/10/19 04:48:36;;;;;;;29.13;24.77;;;7.90;99.90;;;;;;5070102;28;20209;-76
2023/10/19 04:51:04;;;;;;;30.25;24.60;;;7.90;99.90;;;;;;5073569;28;20656;-72
2023/10/19 04:53:33;;;;;;;31.20;26.20;;;7.90;99.90;;;;;;5076319;28;20206;-74
2023/10/19 04:56:01;;;;;;;29.95;26.52;;;7.90;99.90;;;;;;5072471;28;20209;-72
2023/10/19 04:58:28;;;;;;;31.08;26.35;;;8.00;99.90;;;;;;5071376;28;20246;-74
2023/10/19 05:00:55;;;;;;;33.97;25.67;;;8.00;99.90;;;;;;5072618;28;20250;-74
2023/10/19 05:03:23;;;;;;;36.03;27.23;;;8.00;99.90;;;;;;5072866;28;20199;-73
2023/10/19 05:05:51;;;;;;;31.77;26.38;;;8.00;99.90;;;;;;5072045;28;20237;-74
2023/10/19 05:08:18;;;;;;;28.95;23.98;;;8.00;99.90;;;;;;5072395;28;20230;-74
2023/10/19 05:10:47;;;;;;;35.90;27.75;;;8.00;99.90;;;;;;5072972;28;20202;-75
2023/10/19 05:13:14;;;;;;;35.00;26.63;;;8.00;99.90;;;;;;5065467;28;20241;-74
2023/10/19 05:15:42;;;;;;;37.03;28.05;;;8.00;99.90;;;;;;5072175;28;20202;-73
2023/10/19 05:18:10;;;;;;;38.53;28.05;;;8.00;99.90;;;;;;5071336;28;20701;-74
2023/10/19 05:20:40;;;;;;;34.97;27.55;;;8.00;99.90;;;;;;5071808;28;20613;-74
2023/10/19 05:23:08;;;;;;;34.10;27.17;;;8.00;99.90;;;;;;5071802;28;20669;-74
2023/10/19 05:25:34;;;;;;;34.10;26.73;;;8.00;99.90;;;;;;5072117;28;20234;-74
2023/10/19 05:28:03;;;;;;;32.25;24.63;;;8.00;99.90;;;;;;5065170;28;20317;-75
2023/10/19 05:30:31;;;;;;;31.45;25.05;;;8.00;99.90;;;;;;5072116;28;20211;-75
2023/10/19 05:32:58;;;;;;;30.08;25.40;;;8.00;99.90;;;;;;5072183;28;20202;-74
2023/10/19 05:35:26;;;;;;;30.88;23.98;;;7.90;99.90;;;;;;5066223;28;20219;-75
2023/10/19 05:37:55;;;;;;;29.23;25.75;;;7.90;99.90;;;;;;5071036;28;20735;-75
2023/10/19 05:40:23;;;;;;;25.42;22.55;;;8.00;99.90;;;;;;5071436;28;20311;-76
2023/10/19 05:42:50;;;;;;;29.67;24.17;;;8.00;99.90;;;;;;5071981;28;20206;-74
2023/10/19 05:45:19;;;;;;;30.27;25.10;;;8.00;99.90;;;;;;5072029;28;20207;-74
2023/10/19 05:47:46;;;;;;;30.88;24.10;;;8.00;99.90;;;;;;5070876;28;20229;-75
2023/10/19 05:50:15;;;;;;;31.08;22.38;;;8.00;99.90;;;;;;5070849;28;20564;-76
2023/10/19 05:52:42;;;;;;;24.95;21.75;;;8.00;99.90;;;;;;5068791;28;20201;-76
2023/10/19 05:55:10;;;;;;;25.85;21.73;;;8.10;99.90;;;;;;5072239;28;20203;-75
2023/10/19 05:57:40;;;;;;;25.50;21.38;;;8.00;99.90;;;;;;5071788;28;20305;-75
2023/10/19 06:00:12;;;;;;;25.63;21.05;;;7.90;99.90;;;;;;5072008;28;20210;-76
2023/10/19 06:02:43;;;;;;;25.17;19.40;;;7.90;99.90;;;;;;5071202;28;20252;-75
2023/10/19 06:05:10;;;;;;;23.67;19.08;;;7.90;99.90;;;;;;5072222;28;20576;-74
2023/10/19 06:07:37;;;;;;;25.92;19.52;;;7.90;99.90;;;;;;5074315;28;20236;-75
2023/10/19 06:10:06;;;;;;;23.25;20.75;;;7.90;99.90;;;;;;5075649;28;20559;-75
2023/10/19 06:12:34;;;;;;;22.05;18.42;;;7.90;99.90;;;;;;5074805;28;20285;-75
2023/10/19 06:15:01;;;;;;;25.13;20.27;;;7.90;99.90;;;;;;5075139;28;20940;-76
2023/10/19 06:17:28;;;;;;;26.40;21.00;;;7.90;99.90;;;;;;5065874;28;20287;-76
2023/10/19 06:19:57;;;;;;;22.63;19.88;;;7.90;99.90;;;;;;5074840;28;20218;-75
2023/10/19 06:22:23;;;;;;;22.30;19.05;;;7.90;99.90;;;;;;5074525;28;20245;-75
2023/10/19 06:24:52;;;;;;;22.10;19.00;;;7.90;99.90;;;;;;5077378;28;20277;-75
2023/10/19 06:27:18;;;;;;;22.20;19.85;;;7.90;99.90;;;;;;5075267;28;20234;-74
2023/10/19 06:29:45;;;;;;;28.73;20.50;;;7.90;99.90;;;;;;5074394;28;20289;-74
2023/10/19 06:32:14;;;;;;;24.95;21.38;;;7.90;99.90;;;;;;5074737;28;20234;-74
2023/10/19 06:34:41;;;;;;;21.80;17.25;;;8.00;99.90;;;;;;5074817;28;20602;-74
2023/10/19 06:37:10;;;;;;;25.40;18.50;;;8.00;99.90;;;;;;5065760;28;20222;-75
2023/10/19 06:39:40;;;;;;;19.35;17.38;;;8.00;99.90;;;;;;5074499;28;20676;-75
2023/10/19 06:42:10;;;;;;;21.23;18.90;;;8.00;99.90;;;;;;5073883;28;20238;-75
2023/10/19 06:44:37;;;;;;;23.52;19.20;;;8.00;99.90;;;;;;5074396;28;20221;-74
2023/10/19 06:47:06;;;;;;;22.23;19.67;;;8.00;99.90;;;;;;5073548;28;20339;-74
2023/10/19 06:49:34;;;;;;;19.63;15.88;;;8.00;99.90;;;;;;5073362;28;20210;-75
2023/10/19 06:52:00;;;;;;;20.67;17.83;;;8.00;99.90;;;;;;5073772;28;20198;-74
2023/10/19 06:54:29;;;;;;;19.55;16.83;;;8.10;99.90;;;;;;5074382;28;20312;-74
2023/10/19 06:56:56;;;;;;;18.17;16.17;;;8.10;99.90;;;;;;5073373;28;20229;-74
2023/10/19 06:59:24;;;;;;;20.88;17.90;;;8.00;99.90;;;;;;5073661;28;20289;-75
2023/10/19 07:01:50;;;;;;;20.20;16.90;;;8.00;99.90;;;;;;5073645;28;20231;-76
2023/10/19 07:04:17;;;;;;;19.40;17.27;;;8.00;99.90;;;;;;5073570;28;20209;-76
2023/10/19 07:06:44;;;;;;;21.00;16.92;;;8.10;99.90;;;;;;5073979;28;20229;-76
2023/10/19 07:09:11;;;;;;;19.23;17.23;;;8.00;99.90;;;;;;5072970;28;20238;-75
2023/10/19 07:11:39;;;;;;;19.05;15.95;;;8.00;99.90;;;;;;5074002;28;20195;-74
2023/10/19 07:14:07;;;;;;;18.92;16.80;;;8.00;99.90;;;;;;5072971;28;20293;-76
2023/10/19 07:16:34;;;;;;;19.70;17.60;;;8.00;99.90;;;;;;5074425;28;20556;-74
2023/10/19 07:19:01;;;;;;;17.75;15.77;;;8.00;99.90;;;;;;5073000;28;20619;-75
2023/10/19 07:21:31;;;;;;;21.25;17.17;;;8.00;99.90;;;;;;5073559;28;20310;-74
2023/10/19 07:24:01;;;;;;;19.23;17.23;;;8.00;99.90;;;;;;5073985;28;20210;-75
2023/10/19 07:26:31;;;;;;;19.63;17.05;;;8.00;99.90;;;;;;5070341;28;20225;-75
2023/10/19 07:28:59;;;;;;;18.00;16.10;;;8.00;99.90;;;;;;5073227;28;20203;-75
2023/10/19 07:31:27;;;;;;;17.33;15.50;;;8.10;99.90;;;;;;5069822;28;20203;-76
2023/10/19 07:33:58;;;;;;;19.95;16.33;;;8.10;99.90;;;;;;5066425;28;20207;-76
2023/10/19 07:36:25;;;;;;;18.13;16.38;;;8.10;99.90;;;;;;5073608;28;20248;-74
2023/10/19 07:38:52;;;;;;;19.00;16.25;;;8.10;99.90;;;;;;5073595;28;20206;-78
2023/10/19 07:41:20;;;;;;;16.90;14.93;;;8.10;99.90;;;;;;5072554;28;20309;-74
2023/10/19 07:43:47;;;;;;;17.77;15.18;;;8.20;99.90;;;;;;5068773;28;20245;-76
2023/10/19 07:46:16;;;;;;;18.05;16.15;;;8.20;99.90;;;;;;5062644;28;20209;-74
2023/10/19 07:48:43;;;;;;;17.88;15.98;;;8.20;99.90;;;;;;5070318;28;20711;-75
2023/10/19 07:51:11;;;;;;;20.27;17.50;;;8.20;99.90;;;;;;5073540;28;20297;-74
2023/10/19 07:53:38;;;;;;;20.77;15.38;;;8.10;99.90;;;;;;5073474;28;20375;-75
2023/10/19 07:56:08;;;;;;;17.88;14.68;;;8.20;99.90;;;;;;5076394;28;20233;-75
2023/10/19 07:58:34;;;;;;;22.25;17.77;;;8.20;99.90;;;;;;5072789;28;20259;-75
2023/10/19 08:01:02;;;;;;;17.40;15.60;;;8.20;99.90;;;;;;5071062;28;20239;-74
2023/10/19 08:03:30;;;;;;;16.38;14.65;;;8.20;99.90;;;;;;5071981;28;20553;-75
2023/10/19 08:05:57;;;;;;;15.98;14.27;;;8.30;99.90;;;;;;5072163;28;20203;-74
2023/10/19 08:08:24;;;;;;;17.35;15.55;;;8.30;99.90;;;;;;5071737;28;20296;-75
2023/10/19 08:10:51;;;;;;;16.95;14.60;;;8.40;99.90;;;;;;5072159;28;20281;-74
2023/10/19 08:13:18;;;;;;;15.60;13.98;;;8.40;99.90;;;;;;5072907;28;20285;-74
2023/10/19 08:15:45;;;;;;;16.25;14.57;;;8.40;99.90;;;;;;5072250;28;20272;-72
2023/10/19 08:18:14;;;;;;;15.25;13.75;;;8.50;99.90;;;;;;5072326;28;20226;-75
2023/10/19 08:20:45;;;;;;;14.48;13.00;;;8.40;99.90;;;;;;5073383;28;20206;-76
2023/10/19 08:23:13;;;;;;;13.85;12.45;;;8.50;99.90;;;;;;5070872;28;20202;-74
2023/10/19 08:25:40;;;;;;;12.88;11.52;;;8.60;99.90;;;;;;5072781;28;20210;-74
2023/10/19 08:28:07;;;;;;;14.40;12.90;;;8.40;99.90;;;;;;5071398;28;20222;-74
2023/10/19 08:30:34;;;;;;;16.00;14.35;;;8.40;99.90;;;;;;5073043;28;20724;-74
2023/10/19 08:33:01;;;;;;;17.35;13.70;;;8.40;99.90;;;;;;5072764;28;20191;-78
2023/10/19 08:35:28;;;;;;;12.73;11.40;;;8.50;99.90;;;;;;5061993;28;20195;-75
2023/10/19 08:37:57;;;;;;;16.15;13.80;;;8.50;99.90;;;;;;5069709;28;20218;-74
2023/10/19 08:40:26;;;;;;;14.13;12.50;;;8.50;99.90;;;;;;5072279;28;20252;-74
2023/10/19 08:42:54;;;;;;;14.52;12.35;;;8.50;99.90;;;;;;5071482;28;20225;-77
2023/10/19 08:45:22;;;;;;;14.15;12.75;;;8.50;99.90;;;;;;5072165;28;20249;-75
2023/10/19 08:47:56;;;;;;;15.00;13.50;;;8.50;99.90;;;;;;5071887;28;20230;-74
2023/10/19 08:50:24;;;;;;;12.35;11.15;;;8.50;99.90;;;;;;5054269;28;20236;-76
2023/10/19 08:52:54;;;;;;;12.38;11.10;;;8.50;99.90;;;;;;5072374;28;20203;-74
2023/10/19 08:55:22;;;;;;;11.80;10.55;;;8.50;99.90;;;;;;5072368;28;20284;-75
2023/10/19 08:57:50;;;;;;;13.10;11.80;;;8.60;99.90;;;;;;5071611;28;20260;-76
2023/10/19 09:00:18;;;;;;;14.90;13.40;;;8.60;99.90;;;;;;5066829;28;20619;-75
2023/10/19 09:02:45;;;;;;;11.98;10.70;;;8.70;99.90;;;;;;5072120;28;20294;-74
2023/10/19 09:05:19;;;;;;;11.80;10.57;;;8.70;99.90;;;;;;5071378;28;20239;-74
2023/10/19 09:07:54;;;;;;;12.30;11.05;;;8.80;99.90;;;;;;5053276;28;20219;-76
2023/10/19 09:10:24;;;;;;;12.27;11.07;;;8.80;99.90;;;;;;5061177;28;20210;-75
2023/10/19 09:13:01;;;;;;;12.68;11.32;;;8.70;99.90;;;;;;5071516;28;20600;-76
2023/10/19 09:15:29;;;;;;;11.02;9.98;;;8.70;99.90;;;;;;5072847;28;20220;-74
2023/10/19 09:17:55;;;;;;;9.93;8.98;;;8.70;99.90;;;;;;5071739;28;20634;-75
2023/10/19 09:20:27;;;;;;;10.43;9.40;;;8.70;99.90;;;;;;5072255;28;20260;-74
2023/10/19 09:22:54;;;;;;;9.18;8.27;;;8.60;99.90;;;;;;5072147;28;20215;-75
2023/10/19 09:25:23;;;;;;;9.98;8.98;;;8.70;99.90;;;;;;5072987;28;20210;-75
2023/10/19 09:27:52;;;;;;;8.90;8.10;;;8.60;99.90;;;;;;5073689;28;20627;-74
2023/10/19 09:30:22;;;;;;;9.52;8.52;;;8.70;99.90;;;;;;5071905;28;20203;-74
2023/10/19 09:32:49;;;;;;;8.02;7.20;;;8.70;99.90;;;;;;5071845;28;20252;-74
2023/10/19 09:35:19;;;;;;;9.75;8.75;;;8.60;99.90;;;;;;5071821;28;20229;-74
2023/10/19 09:37:47;;;;;;;8.98;8.10;;;8.60;99.90;;;;;;5071389;28;20250;-76
2023/10/19 09:40:14;;;;;;;9.85;8.90;;;8.70;99.90;;;;;;5072567;28;20223;-74
2023/10/19 09:42:48;;;;;;;9.00;8.10;;;8.80;99.90;;;;;;5076166;28;20561;-74
2023/10/19 09:45:20;;;;;;;9.48;8.57;;;8.80;99.90;;;;;;5058229;28;20541;-74
2023/10/19 09:47:51;;;;;;;9.48;8.65;;;8.90;99.90;;;;;;5076300;28;20331;-74
2023/10/19 09:50:18;;;;;;;9.90;8.90;;;8.90;99.90;;;;;;5075284;28;20286;-75
2023/10/19 09:52:46;;;;;;;9.15;6.97;;;9.00;99.90;;;;;;5076445;28;20194;-74
2023/10/19 09:55:19;;;;;;;7.95;7.15;;;9.10;99.90;;;;;;5075502;28;20728;-75
2023/10/19 09:57:52;;;;;;;8.10;7.30;;;9.10;99.90;;;;;;5073449;28;20236;-77
2023/10/19 10:00:23;;;;;;;7.97;7.28;;;9.00;99.90;;;;;;5075431;28;20260;-75
2023/10/19 10:02:51;;;;;;;7.97;7.30;;;9.00;99.90;;;;;;5074081;28;20225;-75
2023/10/19 10:05:47;;;;;;;7.88;7.10;;;9.00;99.90;;;;;;5075540;28;20645;-75
2023/10/19 10:08:39;;;;;;;8.25;7.35;;;9.10;99.90;;;;;;5066746;28;20573;-80
2023/10/19 10:11:19;;;;;;;6.40;5.90;;;9.10;99.90;;;;;;5074463;28;20211;-75
2023/10/19 10:13:51;;;;;;;7.45;6.75;;;9.20;99.90;;;;;;5075088;28;20298;-76
2023/10/19 10:16:19;;;;;;;7.70;7.00;;;9.20;99.90;;;;;;5074255;28;20207;-75
2023/10/19 10:18:50;;;;;;;7.00;6.35;;;9.20;99.90;;;;;;5076078;28;20206;-74
2023/10/19 10:21:20;;;;;;;7.70;7.00;;;9.20;99.90;;;;;;5071911;28;20260;-75
2023/10/19 10:23:49;;;;;;;6.65;6.05;;;9.10;99.90;;;;;;5074899;28;20206;-75
2023/10/19 10:26:17;;;;;;;6.22;5.72;;;9.10;99.90;;;;;;5074290;28;20324;-76
2023/10/19 10:28:49;;;;;;;7.03;6.40;;;9.10;99.90;;;;;;5074474;28;20286;-75
2023/10/19 10:31:22;;;;;;;5.88;5.38;;;9.10;99.90;;;;;;5069773;28;20199;-75
2023/10/19 10:33:51;;;;;;;6.20;5.60;;;9.10;99.90;;;;;;5074816;28;20563;-75
2023/10/19 10:36:18;;;;;;;6.13;5.53;;;9.10;99.90;;;;;;5074491;28;20207;-75
2023/10/19 10:38:46;;;;;;;4.95;4.55;;;9.10;99.90;;;;;;5073513;28;20285;-75
2023/10/19 10:41:20;;;;;;;5.38;4.88;;;9.00;99.90;;;;;;5067515;28;20217;-74
2023/10/19 10:43:53;;;;;;;5.88;5.38;;;9.00;99.90;;;;;;5055904;28;20222;-75
2023/10/19 10:46:22;;;;;;;6.03;5.50;;;9.00;99.90;;;;;;5067412;28;20195;-76
2023/10/19 10:48:49;;;;;;;5.90;5.40;;;9.10;99.90;;;;;;5073417;28;20199;-74
2023/10/19 10:51:17;;;;;;;6.35;5.75;;;9.20;99.90;;;;;;5073795;28;20203;-75
2023/10/19 10:53:44;;;;;;;4.80;4.40;;;9.20;99.90;;;;;;5073896;28;20203;-74
2023/10/19 10:56:12;;;;;;;5.82;5.32;;;9.30;99.90;;;;;;5073499;28;20388;-74
2023/10/19 10:58:39;;;;;;;5.38;4.88;;;9.30;99.90;;;;;;5072320;28;20203;-77
2023/10/19 11:01:10;;;;;;;6.45;5.45;;;9.40;99.90;;;;;;5064816;28;20214;-75
2023/10/19 11:03:37;;;;;;;6.20;5.70;;;9.30;99.90;;;;;;5073923;28;20277;-76
2023/10/19 11:06:07;;;;;;;5.35;4.97;;;9.30;99.90;;;;;;5073371;28;20740;-73
2023/10/19 11:08:36;;;;;;;6.85;6.22;;;9.30;99.90;;;;;;5073704;28;20199;-74
2023/10/19 11:11:05;;;;;;;6.05;5.55;;;9.30;99.90;;;;;;5073372;28;20652;-75
2023/10/19 11:13:34;;;;;;;6.00;5.25;;;9.40;99.90;;;;;;5074316;28;20253;-74
2023/10/19 11:16:05;;;;;;;7.82;6.30;;;9.40;99.90;;;;;;5073360;28;20238;-73
2023/10/19 11:18:35;;;;;;;6.85;5.85;;;9.50;99.90;;;;;;5073530;28;20222;-74
2023/10/19 11:21:06;;;;;;;6.20;5.60;;;9.60;99.90;;;;;;5073231;28;20583;-73
2023/10/19 11:23:42;;;;;;;5.60;5.20;;;9.50;99.90;;;;;;5073424;28;20222;-73
2023/10/19 11:26:10;;;;;;;6.95;6.35;;;9.50;99.90;;;;;;5073170;28;20208;-75
2023/10/19 11:28:42;;;;;;;6.68;6.07;;;9.40;99.90;;;;;;5073117;28;20282;-74
2023/10/19 11:31:17;;;;;;;6.30;5.80;;;9.40;99.90;;;;;;5073331;28;20229;-73
2023/10/19 11:33:48;;;;;;;6.50;5.90;;;9.30;99.90;;;;;;5069110;28;20281;-73
2023/10/19 11:36:15;;;;;;;7.32;6.72;;;9.40;99.90;;;;;;5073928;28;20207;-74
2023/10/19 11:38:43;;;;;;;6.53;5.95;;;9.30;99.90;;;;;;5072454;28;20299;-74
2023/10/19 11:41:10;;;;;;;6.53;6.03;;;9.30;99.90;;;;;;5072569;28;20203;-74
2023/10/19 11:43:37;;;;;;;6.35;5.82;;;9.30;99.90;;;;;;5072159;28;20286;-74
2023/10/19 11:46:05;;;;;;;7.97;7.28;;;9.30;99.90;;;;;;5072772;28;20634;-77
2023/10/19 11:48:33;;;;;;;8.77;7.93;;;9.20;99.90;;;;;;5072899;28;20611;-73
2023/10/19 11:51:03;;;;;;;7.20;6.57;;;9.30;99.90;;;;;;5072803;28;20286;-75
2023/10/19 11:53:33;;;;;;;7.80;7.10;;;9.30;99.90;;;;;;5072842;28;20264;-73
2023/10/19 11:56:01;;;;;;;9.00;8.18;;;9.20;99.90;;;;;;5070799;28;20207;-75
2023/10/19 11:58:28;;;;;;;8.45;7.65;;;9.20;99.90;;;;;;5065611;28;20218;-73
2023/10/19 12:00:55;;;;;;;8.13;7.40;;;9.20;99.90;;;;;;5072141;28;20202;-73
2023/10/19 12:03:22;;;;;;;7.65;7.00;;;9.10;99.90;;;;;;5071608;28;20552;-74
2023/10/19 12:05:52;;;;;;;8.25;7.55;;;9.20;99.90;;;;;;5072233;28;20199;-74
2023/10/19 12:08:20;;;;;;;9.55;8.60;;;9.10;99.90;;;;;;5072034;28;20241;-75
2023/10/19 12:10:47;;;;;;;8.07;7.13;;;9.10;99.90;;;;;;5072184;28;20665;-74
2023/10/19 12:13:16;;;;;;;7.68;7.00;;;9.10;99.90;;;;;;5070753;28;20191;-74
2023/10/19 12:15:51;;;;;;;9.13;8.32;;;9.20;99.90;;;;;;5072374;28;20206;-74
2023/10/19 12:18:18;;;;;;;9.95;8.95;;;9.10;99.90;;;;;;5071420;28;20278;-74
2023/10/19 12:20:47;;;;;;;8.13;7.28;;;9.20;99.90;;;;;;5072152;28;20286;-74
2023/10/19 12:23:14;;;;;;;11.77;10.27;;;9.10;99.90;;;;;;5071855;28;20284;-74
2023/10/19 12:25:43;;;;;;;10.65;9.68;;;9.10;99.90;;;;;;5072285;28;20209;-73
2023/10/19 12:28:13;;;;;;;11.05;10.05;;;9.20;99.90;;;;;;5071563;28;20231;-73
2023/10/19 12:30:44;;;;;;;10.50;9.50;;;9.20;99.90;;;;;;5067723;28;20191;-73
2023/10/19 12:33:14;;;;;;;7.72;7.03;;;9.20;99.90;;;;;;5071832;28;20195;-73
2023/10/19 12:35:49;;;;;;;10.18;9.18;;;9.20;99.90;;;;;;5072100;28;20542;-73
2023/10/19 12:38:16;;;;;;;8.55;7.75;;;9.10;99.90;;;;;;5070675;28;20689;-74
2023/10/19 12:40:50;;;;;;;9.45;8.55;;;9.10;99.90;;;;;;5070020;28;20214;-74
2023/10/19 12:43:19;;;;;;;9.82;8.82;;;9.00;99.90;;;;;;5071934;28;20210;-74
2023/10/19 12:45:50;;;;;;;9.70;8.90;;;9.00;99.90;;;;;;5072141;28;20229;-74
2023/10/19 12:48:17;;;;;;;10.27;9.18;;;9.00;99.90;;;;;;5067456;28;20226;-74
2023/10/19 12:50:44;;;;;;;10.10;9.20;;;9.00;99.90;;;;;;5070005;28;20277;-76
2023/10/19 12:53:11;;;;;;;8.95;8.20;;;9.00;99.90;;;;;;5070565;28;20199;-74